Time;durP1;ratioP1;P1;durP2;ratioP2;P2;SDS_P1;SDS_P2;PMS_P1;PMS_P2;Temp;Humidity;BMP_temperature;BMP_pressure;BME280_temperature;BME280_humidity;BME280_pressure;Samples;Min_cycle;Max_cycle;Signal;HPM_P1;HPM_P2
2023/07/26 00:01:47;;;;;;;;;;;;;;;14.94;92.11;101029.72;10458147;28;19933;-64
2023/07/26 00:06:49;;;;;;;;;;;;;;;15.13;89.36;101032.72;10457843;28;19925;-64
2023/07/26 00:11:51;;;;;;;;;;;;;;;15.04;92.72;101042.13;10456799;28;19925;-64
2023/07/26 00:16:54;;;;;;;;;;;;;;;14.80;93.45;101051.81;10457822;28;20001;-64
2023/07/26 00:21:56;;;;;;;;;;;;;;;14.96;94.77;101051.53;10457545;28;19925;-63
2023/07/26 00:26:58;;;;;;;;;;;;;;;14.58;100.00;101057.72;10457258;28;20265;-63
2023/07/26 00:32:00;;;;;;;;;;;;;;;14.48;100.00;101061.00;10439570;28;19925;-63
2023/07/26 00:37:05;;;;;;;;;;;;;;;14.29;100.00;101064.06;10457084;28;20456;-63
2023/07/26 00:42:07;;;;;;;;;;;;;;;14.24;100.00;101063.53;10456287;28;19925;-63
2023/07/26 00:47:09;;;;;;;;;;;;;;;14.16;100.00;101050.06;10456698;28;19931;-68
2023/07/26 00:52:12;;;;;;;;;;;;;;;14.16;100.00;101046.59;10456959;28;19931;-68
2023/07/26 00:57:14;;;;;;;;;;;;;;;14.27;100.00;101038.78;10438811;28;19943;-68
2023/07/26 01:02:16;;;;;;;;;;;;;;;13.95;100.00;101047.06;10456759;28;19931;-69
2023/07/26 01:07:21;;;;;;;;;;;;;;;14.11;100.00;101041.63;10456643;28;19932;-69
2023/07/26 01:12:29;;;;;;;;;;;;;;;13.96;100.00;101042.69;10456433;28;20394;-68
2023/07/26 01:17:31;;;;;;;;;;;;;;;13.83;100.00;101040.84;10455202;28;19931;-68
2023/07/26 01:22:33;;;;;;;;;;;;;;;13.67;100.00;101027.91;10456264;28;19974;-68
2023/07/26 01:27:36;;;;;;;;;;;;;;;13.67;100.00;101027.91;10455948;28;20287;-69
2023/07/26 01:32:38;;;;;;;;;;;;;;;14.05;100.00;101036.78;10456050;28;19924;-68
2023/07/26 01:37:40;;;;;;;;;;;;;;;13.85;100.00;101032.84;10456053;28;19924;-68
2023/07/26 01:42:42;;;;;;;;;;;;;;;13.63;100.00;101034.28;10455865;28;19925;-68
2023/07/26 01:47:45;;;;;;;;;;;;;;;13.55;100.00;101028.72;10438074;28;20066;-68
2023/07/26 01:52:47;;;;;;;;;;;;;;;13.51;100.00;101033.31;10457103;28;20291;-68
2023/07/26 01:57:49;;;;;;;;;;;;;;;13.32;100.00;101032.84;10462729;28;19928;-69
2023/07/26 02:02:51;;;;;;;;;;;;;;;13.38;100.00;101035.94;10462918;28;20376;-69
2023/07/26 02:07:54;;;;;;;;;;;;;;;13.32;100.00;101040.75;10462714;28;19964;-68
2023/07/26 02:12:56;;;;;;;;;;;;;;;13.38;100.00;101042.94;10494639;22;20023;-61
2023/07/26 02:17:59;;;;;;;;;;;;;;;13.37;100.00;101028.13;10503825;28;20357;-60
2023/07/26 02:23:01;;;;;;;;;;;;;;;12.95;100.00;101035.19;10503518;28;19929;-63
2023/07/26 02:28:03;;;;;;;;;;;;;;;12.98;100.00;101027.94;10503506;28;19931;-63
2023/07/26 02:33:06;;;;;;;;;;;;;;;12.74;100.00;101034.75;10503259;28;19935;-63
2023/07/26 02:38:09;;;;;;;;;;;;;;;12.68;100.00;101035.16;10502967;28;20277;-63
2023/07/26 02:43:11;;;;;;;;;;;;;;;12.86;100.00;101028.75;10485137;28;19931;-63
2023/07/26 02:48:16;;;;;;;;;;;;;;;12.51;100.00;101026.53;10502554;28;19932;-63
2023/07/26 02:53:18;;;;;;;;;;;;;;;12.42;100.00;101037.59;10484830;28;19931;-63
2023/07/26 02:58:20;;;;;;;;;;;;;;;12.47;100.00;101040.78;10502217;28;19925;-63
2023/07/26 03:03:22;;;;;;;;;;;;;;;12.42;100.00;101037.59;10501762;28;19924;-63
2023/07/26 03:08:25;;;;;;;;;;;;;;;12.63;100.00;101031.00;10501368;28;19928;-64
2023/07/26 03:13:27;;;;;;;;;;;;;;;12.62;100.00;101045.09;10483976;28;19931;-63
2023/07/26 03:18:30;;;;;;;;;;;;;;;12.52;100.00;101046.59;10501315;28;19981;-63
2023/07/26 03:23:34;;;;;;;;;;;;;;;12.98;100.00;101042.88;10501106;28;19925;-63
2023/07/26 03:28:36;;;;;;;;;;;;;;;12.62;100.00;101046.88;10500857;28;20359;-63
2023/07/26 03:33:38;;;;;;;;;;;;;;;12.50;100.00;101048.47;10500739;28;19935;-63
2023/07/26 03:38:40;;;;;;;;;;;;;;;12.81;100.00;101050.03;10500533;28;19978;-63
2023/07/26 03:43:43;;;;;;;;;;;;;;;12.77;100.00;101052.94;10500198;28;19925;-62
2023/07/26 03:48:45;;;;;;;;;;;;;;;12.69;100.00;101050.78;10500303;28;19928;-63
2023/07/26 03:53:47;;;;;;;;;;;;;;;12.58;100.00;101059.34;10500045;28;19925;-63
2023/07/26 03:58:49;;;;;;;;;;;;;;;12.56;100.00;101058.59;10499649;28;20364;-63
2023/07/26 04:03:52;;;;;;;;;;;;;;;12.33;100.00;101069.66;10499806;28;19964;-68
2023/07/26 04:08:55;;;;;;;;;;;;;;;12.57;100.00;101057.66;10499372;28;19978;-68
2023/07/26 04:13:57;;;;;;;;;;;;;;;12.52;100.00;101058.88;10499291;28;19928;-68
2023/07/26 04:19:00;;;;;;;;;;;;;;;12.42;100.00;101059.47;10498967;28;20003;-69
2023/07/26 04:24:02;;;;;;;;;;;;;;;12.56;100.00;101055.16;10498937;28;19924;-69
2023/07/26 04:29:04;;;;;;;;;;;;;;;12.39;100.00;101064.91;10498733;28;20374;-68
2023/07/26 04:34:07;;;;;;;;;;;;;;;12.47;100.00;101053.91;10498748;28;20026;-69
2023/07/26 04:39:09;;;;;;;;;;;;;;;12.58;100.00;101059.34;10498706;28;19931;-69
2023/07/26 04:44:11;;;;;;;;;;;;;;;12.78;100.00;101057.28;10498760;28;19964;-68
2023/07/26 04:49:13;;;;;;;;;;;;;;;12.77;100.00;101066.94;10498266;28;19925;-68
2023/07/26 04:54:15;;;;;;;;;;;;;;;12.87;100.00;101063.75;10498440;28;19929;-68
2023/07/26 04:59:18;;;;;;;;;;;;;;;12.73;100.00;101060.19;10498101;28;20367;-68
2023/07/26 05:04:20;;;;;;;;;;;;;;;12.99;100.00;101052.44;10498268;28;19925;-69
2023/07/26 05:09:22;;;;;;;;;;;;;;;12.96;100.00;101053.50;10498067;28;19928;-69
2023/07/26 05:14:25;;;;;;;;;;;;;;;13.14;100.00;101061.13;10497708;28;19931;-69
2023/07/26 05:19:27;;;;;;;;;;;;;;;13.22;100.00;101058.88;10497720;28;20390;-69
2023/07/26 05:24:29;;;;;;;;;;;;;;;13.48;100.00;101067.75;10497582;28;19924;-68
2023/07/26 05:29:31;;;;;;;;;;;;;;;13.52;100.00;101063.94;10484377;28;19925;-69
2023/07/26 05:34:35;;;;;;;;;;;;;;;13.78;100.00;101065.81;10505590;28;20385;-64
2023/07/26 05:39:37;;;;;;;;;;;;;;;13.91;100.00;101066.66;10505587;28;19925;-64
2023/07/26 05:44:40;;;;;;;;;;;;;;;13.69;100.00;101073.34;10505085;28;20268;-64
2023/07/26 05:49:43;;;;;;;;;;;;;;;13.92;100.00;101071.00;10504753;28;19925;-64
2023/07/26 05:54:45;;;;;;;;;;;;;;;14.04;100.00;101067.53;10504876;28;19928;-64
2023/07/26 05:59:47;;;;;;;;;;;;;;;14.11;100.00;101067.97;10504992;28;19924;-63
2023/07/26 06:04:49;;;;;;;;;;;;;;;14.25;100.00;101075.75;10504591;28;19924;-63
2023/07/26 06:09:52;;;;;;;;;;;;;;;14.42;100.00;101065.84;10504068;28;19925;-64
2023/07/26 06:14:54;;;;;;;;;;;;;;;14.64;100.00;101066.09;10503794;28;19946;-64
2023/07/26 06:19:56;;;;;;;;;;;;;;;14.65;100.00;101072.19;10503934;28;19931;-63
2023/07/26 06:24:58;;;;;;;;;;;;;;;15.04;100.00;101078.22;10503538;28;19931;-64
2023/07/26 06:30:01;;;;;;;;;;;;;;;15.12;100.00;101082.94;10503480;28;19925;-64
2023/07/26 06:35:03;;;;;;;;;;;;;;;15.28;100.00;101090.56;10503015;28;20390;-63
2023/07/26 06:40:06;;;;;;;;;;;;;;;15.76;100.00;101101.16;10501713;28;20298;-64
2023/07/26 06:45:08;;;;;;;;;;;;;;;15.78;100.00;101120.34;10484971;28;19930;-64
2023/07/26 06:50:10;;;;;;;;;;;;;;;15.36;100.00;101123.34;10502635;28;20378;-64
2023/07/26 06:55:13;;;;;;;;;;;;;;;15.15;100.00;101122.28;10502473;28;19925;-64
2023/07/26 07:00:15;;;;;;;;;;;;;;;15.39;100.00;101122.31;10502311;28;19924;-64
2023/07/26 07:05:18;;;;;;;;;;;;;;;15.24;100.00;101127.72;10502057;28;19925;-63
2023/07/26 07:10:20;;;;;;;;;;;;;;;15.19;100.00;101134.28;10501797;28;19924;-65
2023/07/26 07:15:23;;;;;;;;;;;;;;;15.00;100.00;101137.41;10501265;28;19931;-65
2023/07/26 07:20:25;;;;;;;;;;;;;;;14.84;100.00;101156.06;10501441;28;19924;-65
2023/07/26 07:25:27;;;;;;;;;;;;;;;14.66;100.00;101163.47;10500954;28;20397;-65
2023/07/26 07:30:30;;;;;;;;;;;;;;;14.58;100.00;101187.66;10501002;28;20271;-64
2023/07/26 07:35:33;;;;;;;;;;;;;;;14.64;100.00;101224.19;10500627;28;19929;-64
2023/07/26 07:40:36;;;;;;;;;;;;;;;13.73;100.00;101235.38;10500486;28;19931;-66
2023/07/26 07:45:41;;;;;;;;;;;;;;;13.74;100.00;101229.16;10500063;28;19931;-66
2023/07/26 07:50:43;;;;;;;;;;;;;;;13.79;100.00;101228.88;10499910;28;19970;-66
2023/07/26 07:55:45;;;;;;;;;;;;;;;13.81;100.00;101226.97;10500010;28;19936;-66
2023/07/26 08:00:47;;;;;;;;;;;;;;;13.65;100.00;101223.63;10499720;28;19940;-66
2023/07/26 08:05:50;;;;;;;;;;;;;;;13.94;100.00;101222.59;10499691;28;19947;-66
2023/07/26 08:10:52;;;;;;;;;;;;;;;13.96;100.00;101204.09;10499411;28;20102;-66
2023/07/26 08:15:57;;;;;;;;;;;;;;;13.78;100.00;101202.66;10498882;28;19925;-66
2023/07/26 08:21:02;;;;;;;;;;;;;;;14.20;100.00;101182.34;10499172;28;19928;-66
2023/07/26 08:26:05;;;;;;;;;;;;;;;14.61;100.00;101173.50;10498975;28;19960;-69
2023/07/26 08:31:07;;;;;;;;;;;;;;;15.38;100.00;101170.72;10481034;28;19924;-69
2023/07/26 08:36:10;;;;;;;;;;;;;;;16.69;100.00;101161.91;10498640;28;19925;-69
2023/07/26 08:41:12;;;;;;;;;;;;;;;17.23;100.00;101160.34;10481072;28;19924;-69
2023/07/26 08:46:15;;;;;;;;;;;;;;;17.55;100.00;101164.88;10498328;28;19924;-69
2023/07/26 08:51:17;;;;;;;;;;;;;;;17.50;100.00;101158.25;10480801;28;19924;-69
2023/07/26 08:56:20;;;;;;;;;;;;;;;18.48;96.38;101155.41;10498321;28;19925;-70
2023/07/26 09:01:22;;;;;;;;;;;;;;;18.59;91.36;101146.53;10480350;28;19924;-70
2023/07/26 09:06:24;;;;;;;;;;;;;;;19.05;98.61;101147.06;10506171;28;19970;-70
2023/07/26 09:11:27;;;;;;;;;;;;;;;19.18;95.23;101145.00;10506138;28;19932;-69
2023/07/26 09:16:30;;;;;;;;;;;;;;;19.55;87.07;101141.72;10488926;28;19978;-70
2023/07/26 09:21:33;;;;;;;;;;;;;;;19.64;88.50;101135.56;10488403;28;20371;-69
2023/07/26 09:26:38;;;;;;;;;;;;;;;20.28;89.35;101140.47;10488152;28;20306;-63
2023/07/26 09:31:42;;;;;;;;;;;;;;;19.93;91.93;101132.09;10505842;28;19931;-64
2023/07/26 09:36:45;;;;;;;;;;;;;;;20.30;83.46;101134.00;10488140;28;20264;-63
2023/07/26 09:41:49;;;;;;;;;;;;;;;20.40;79.59;101124.16;10487786;28;19925;-64
2023/07/26 09:46:52;;;;;;;;;;;;;;;21.56;81.87;101120.28;10504953;28;19931;-64
2023/07/26 09:51:57;;;;;;;;;;;;;;;21.50;79.29;101114.59;10505060;28;19978;-64
2023/07/26 09:57:05;;;;;;;;;;;;;;;21.44;87.36;101120.47;10487814;28;19931;-65
2023/07/26 10:02:11;;;;;;;;;;;;;;;22.05;73.01;101115.34;10488189;28;19924;-65
2023/07/26 10:07:13;;;;;;;;;;;;;;;20.58;81.17;101120.78;10486980;28;19925;-65
2023/07/26 10:12:16;;;;;;;;;;;;;;;22.86;75.27;101100.00;10503906;28;19935;-65
2023/07/26 10:17:18;;;;;;;;;;;;;;;21.61;71.78;101108.16;10503757;28;19964;-65
2023/07/26 10:22:21;;;;;;;;;;;;;;;20.56;75.07;101120.06;10503725;28;19924;-67
2023/07/26 10:27:23;;;;;;;;;;;;;;;22.55;72.11;101109.38;10486097;28;19924;-67
2023/07/26 10:32:26;;;;;;;;;;;;;;;20.57;75.73;101117.25;10503452;28;19935;-67
2023/07/26 10:37:33;;;;;;;;;;;;;;;19.93;86.98;101121.47;10485540;28;19968;-67
2023/07/26 10:42:35;;;;;;;;;;;;;;;19.31;84.39;101113.72;10468842;28;19924;-66
2023/07/26 10:47:47;;;;;;;;;;;;;;;20.97;87.11;101121.47;10502651;28;20382;-67
2023/07/26 10:52:50;;;;;;;;;;;;;;;20.64;81.93;101098.91;10485043;28;20019;-67
2023/07/26 10:57:52;;;;;;;;;;;;;;;20.26;78.06;101100.72;10502344;28;19924;-67
2023/07/26 11:03:00;;;;;;;;;;;;;;;20.62;82.99;101116.81;10502142;28;20286;-67
2023/07/26 11:08:04;;;;;;;;;;;;;;;21.87;77.86;101099.38;10501830;28;20440;-67
2023/07/26 11:13:07;;;;;;;;;;;;;;;23.50;71.52;101095.84;10483861;28;19924;-67
2023/07/26 11:18:10;;;;;;;;;;;;;;;22.30;76.06;101096.91;10484106;28;19931;-67
2023/07/26 11:23:16;;;;;;;;;;;;;;;24.07;69.89;101100.38;10501310;28;19924;-67
2023/07/26 11:28:18;;;;;;;;;;;;;;;21.59;71.75;101096.84;10500354;28;20305;-67
2023/07/26 11:33:31;;;;;;;;;;;;;;;20.68;79.74;101104.78;10483218;28;19931;-66
2023/07/26 11:38:33;;;;;;;;;;;;;;;23.41;71.74;101109.34;10482952;28;20022;-66
2023/07/26 11:43:37;;;;;;;;;;;;;;;23.35;67.83;101097.47;10500437;28;19928;-67
2023/07/26 11:48:43;;;;;;;;;;;;;;;25.12;59.55;101090.47;10500423;28;19925;-67
2023/07/26 11:53:46;;;;;;;;;;;;;;;22.93;62.20;101085.84;10500065;28;19925;-66
2023/07/26 11:58:52;;;;;;;;;;;;;;;21.18;65.26;101104.38;10499916;28;20379;-66
2023/07/26 12:03:54;;;;;;;;;;;;;;;21.62;63.82;101101.88;10482062;28;20011;-66
2023/07/26 12:09:09;;;;;;;;;;;;;;;22.16;63.80;101109.78;10499487;28;19924;-66
2023/07/26 12:14:14;;;;;;;;;;;;;;;21.40;64.13;101112.94;10499284;28;19932;-66
2023/07/26 12:19:21;;;;;;;;;;;;;;;21.86;64.52;101108.41;10481402;28;19939;-66
2023/07/26 12:24:27;;;;;;;;;;;;;;;21.14;65.25;101121.66;10481512;28;19960;-66
2023/07/26 12:29:30;;;;;;;;;;;;;;;20.40;66.45;101113.53;10498889;28;19974;-66
2023/07/26 12:34:33;;;;;;;;;;;;;;;21.64;62.15;101109.72;10498942;28;19924;-66
2023/07/26 12:39:36;;;;;;;;;;;;;;;22.25;61.24;101105.31;10481173;28;19948;-65
2023/07/26 12:44:38;;;;;;;;;;;;;;;23.79;58.63;101104.34;10480836;28;19925;-66
2023/07/26 12:49:41;;;;;;;;;;;;;;;23.87;58.98;101107.06;10498524;28;19924;-66
2023/07/26 12:54:43;;;;;;;;;;;;;;;24.21;56.53;101098.84;10498377;28;19956;-66
2023/07/26 12:59:46;;;;;;;;;;;;;;;23.64;57.04;101114.91;10498172;28;19935;-66
2023/07/26 13:04:50;;;;;;;;;;;;;;;22.65;57.46;101111.09;10498230;28;19924;-66
2023/07/26 13:09:52;;;;;;;;;;;;;;;;;;10497892;28;19924;-66
2023/07/26 13:14:55;;;;;;;;;;;;;;;21.79;58.80;101110.00;10497843;28;19925;-66
2023/07/26 13:19:57;;;;;;;;;;;;;;;23.49;55.58;101112.88;10497879;28;20239;-66
2023/07/26 13:24:59;;;;;;;;;;;;;;;23.31;50.95;101102.31;10497667;28;19924;-66
2023/07/26 13:30:03;;;;;;;;;;;;;;;23.09;52.09;101097.59;10497472;28;20379;-66
2023/07/26 13:35:06;;;;;;;;;;;;;;;21.81;57.78;101111.50;10497821;28;19924;-66
2023/07/26 13:40:08;;;;;;;;;;;;;;;21.66;58.25;101115.72;10479715;28;19928;-66
2023/07/26 13:45:11;;;;;;;;;;;;;;;23.26;52.30;101115.31;10497239;28;20371;-66
2023/07/26 13:50:13;;;;;;;;;;;;;;;22.45;56.02;101125.47;10483471;28;19999;-66
2023/07/26 13:55:15;;;;;;;;;;;;;;;23.06;56.60;101121.91;10504867;28;19936;-66
2023/07/26 14:00:17;;;;;;;;;;;;;;;24.30;55.05;101118.38;10504666;28;20283;-66
2023/07/26 14:05:19;;;;;;;;;;;;;;;23.73;51.01;101122.72;10504511;28;19931;-66
2023/07/26 14:10:22;;;;;;;;;;;;;;;23.99;52.55;101121.78;10504345;28;19939;-65
2023/07/26 14:15:24;;;;;;;;;;;;;;;24.26;50.95;101123.25;10503946;28;20362;-66
2023/07/26 14:20:26;;;;;;;;;;;;;;;24.00;49.74;101127.94;10503862;28;19929;-66
2023/07/26 14:30:39;;;;;;;;;;;;;;;23.11;55.38;101127.63;10337764;28;20025;-64
2023/07/26 14:35:41;;;;;;;;;;;;;;;22.52;55.02;101135.53;10339459;28;19926;-63
2023/07/26 14:40:43;;;;;;;;;;;;;;;24.40;53.40;101129.72;10338963;28;19926;-64
2023/07/26 14:45:45;;;;;;;;;;;;;;;24.35;50.27;101131.25;10339039;28;19929;-64
2023/07/26 14:50:48;;;;;;;;;;;;;;;24.48;50.04;101134.22;10338569;28;20390;-64
2023/07/26 14:55:50;;;;;;;;;;;;;;;24.30;48.96;101131.75;10337393;28;20192;-64
2023/07/26 15:00:53;;;;;;;;;;;;;;;23.80;48.33;101138.13;10337354;28;20020;-64
2023/07/26 15:05:55;;;;;;;;;;;;;;;24.26;50.01;101131.25;10336927;28;19930;-63
2023/07/26 15:10:57;;;;;;;;;;;;;;;23.53;52.74;101138.25;10336867;28;19929;-64
2023/07/26 15:16:00;;;;;;;;;;;;;;;23.93;51.06;101133.97;10336602;28;19925;-64
2023/07/26 15:21:02;;;;;;;;;;;;;;;25.02;49.92;101130.88;10337409;28;20009;-64
2023/07/26 15:26:04;;;;;;;;;;;;;;;24.47;49.22;101132.56;10335921;28;19932;-65
2023/07/26 15:31:06;;;;;;;;;;;;;;;24.63;48.96;101126.38;10335111;28;20269;-64
2023/07/26 15:36:09;;;;;;;;;;;;;;;24.74;46.12;101128.66;10335083;28;19926;-64
2023/07/26 15:41:11;;;;;;;;;;;;;;;23.78;48.76;101124.09;10334834;28;19930;-64
2023/07/26 15:46:16;;;;;;;;;;;;;;;22.87;49.32;101131.88;10334656;28;20409;-64
2023/07/26 15:51:23;;;;;;;;;;;;;;;23.93;49.68;101120.59;10333996;28;20333;-64
2023/07/26 15:56:26;;;;;;;;;;;;;;;24.02;46.93;101125.94;10334330;28;19930;-64
2023/07/26 16:01:28;;;;;;;;;;;;;;;23.54;47.97;101123.06;10334258;28;19925;-64
2023/07/26 16:06:30;;;;;;;;;;;;;;;23.81;46.77;101118.41;10334039;28;20332;-63
2023/07/26 16:11:52;;;;;;;;;;;;;;;24.01;46.86;101111.75;10334224;28;19933;-64
2023/07/26 16:16:58;;;;;;;;;;;;;;;22.98;47.05;101115.56;10348496;28;19929;-64
2023/07/26 16:22:03;;;;;;;;;;;;;;;22.99;46.72;101103.88;10333870;28;19925;-64
2023/07/26 16:27:05;;;;;;;;;;;;;;;22.98;46.55;101104.03;10269873;28;1804441;-64
2023/07/26 16:32:08;;;;;;;;;;;;;;;23.09;46.77;101097.59;10333714;28;19933;-63
2023/07/26 16:37:10;;;;;;;;;;;;;;;23.03;46.48;101107.03;10334836;28;19980;-64
2023/07/26 16:42:14;;;;;;;;;;;;;;;22.18;49.03;101101.63;10334617;28;19996;-70
2023/07/26 16:47:16;;;;;;;;;;;;;;;22.31;47.62;101095.88;10333390;28;19930;-65
2023/07/26 16:52:18;;;;;;;;;;;;;;;22.81;48.96;101101.31;10334252;28;19961;-65
2023/07/26 16:57:21;;;;;;;;;;;;;;;22.78;47.95;101098.16;10334098;28;20012;-64
2023/07/26 17:02:23;;;;;;;;;;;;;;;22.90;46.51;101096.84;10334148;28;19926;-65
2023/07/26 17:07:25;;;;;;;;;;;;;;;22.20;47.04;101097.78;10332668;28;19925;-65
2023/07/26 17:12:28;;;;;;;;;;;;;;;21.41;48.75;101106.63;10333935;28;19925;-64
2023/07/26 17:17:30;;;;;;;;;;;;;;;21.74;48.65;101105.13;10333717;28;19926;-64
2023/07/26 17:22:32;;;;;;;;;;;;;;;21.40;49.56;101104.94;10332512;28;20348;-64
2023/07/26 17:27:35;;;;;;;;;;;;;;;21.18;50.52;101108.88;10341285;28;19926;-64
2023/07/26 17:32:37;;;;;;;;;;;;;;;21.13;50.11;101107.50;10341784;28;20114;-64
2023/07/26 17:37:39;;;;;;;;;;;;;;;20.59;50.88;101107.34;10341531;28;19968;-64
2023/07/26 17:42:42;;;;;;;;;;;;;;;21.16;49.86;101111.69;10341106;28;19926;-64
2023/07/26 17:47:47;;;;;;;;;;;;;;;21.13;50.81;101111.97;10340834;28;20369;-64
2023/07/26 17:52:50;;;;;;;;;;;;;;;20.28;50.52;101111.22;10341496;28;19980;-64
2023/07/26 17:57:52;;;;;;;;;;;;;;;20.65;50.19;101107.75;10339667;28;19926;-64
2023/07/26 18:03:08;;;;;;;;;;;;;;;20.33;51.43;101109.78;10340384;28;20308;-65
2023/07/26 18:08:10;;;;;;;;;;;;;;;19.98;52.90;101105.09;10340477;28;19926;-65
2023/07/26 18:13:13;;;;;;;;;;;;;;;19.78;53.39;101097.13;10338970;28;20284;-65
2023/07/26 18:18:15;;;;;;;;;;;;;;;19.43;55.19;101109.16;10339109;28;20016;-65
2023/07/26 18:23:17;;;;;;;;;;;;;;;19.19;57.30;101106.03;10339871;28;19926;-65
2023/07/26 18:28:20;;;;;;;;;;;;;;;18.97;59.73;101109.75;10339234;28;19925;-65
2023/07/26 18:33:22;;;;;;;;;;;;;;;18.52;61.78;101113.56;10339331;28;19932;-65
2023/07/26 18:38:24;;;;;;;;;;;;;;;18.09;63.23;101112.78;10339094;28;20003;-65
2023/07/26 18:43:27;;;;;;;;;;;;;;;18.04;65.30;101114.97;10337824;28;19930;-65
2023/07/26 18:48:29;;;;;;;;;;;;;;;17.79;66.87;101114.34;10338815;28;20020;-65
2023/07/26 18:53:31;;;;;;;;;;;;;;;17.48;71.59;101109.88;10338518;28;19933;-65
2023/07/26 18:58:33;;;;;;;;;;;;;;;17.34;73.78;101116.31;10338975;28;20285;-65
2023/07/26 19:03:36;;;;;;;;;;;;;;;17.13;72.29;101101.22;10338130;28;19930;-65
2023/07/26 19:08:38;;;;;;;;;;;;;;;16.93;73.80;101112.50;10338108;28;19933;-65
2023/07/26 19:13:42;;;;;;;;;;;;;;;16.75;72.86;101106.88;10336695;28;20404;-65
2023/07/26 19:18:44;;;;;;;;;;;;;;;16.71;75.93;101119.50;10337572;28;19957;-65
2023/07/26 19:23:46;;;;;;;;;;;;;;;16.36;77.94;101128.34;10337318;28;20284;-65
2023/07/26 19:28:49;;;;;;;;;;;;;;;16.33;77.04;101125.94;10335696;28;19926;-64
2023/07/26 19:33:51;;;;;;;;;;;;;;;16.06;78.26;101120.94;10336840;28;19933;-65
2023/07/26 19:38:53;;;;;;;;;;;;;;;15.92;79.35;101119.31;10335605;28;19926;-64
2023/07/26 19:43:56;;;;;;;;;;;;;;;15.79;80.27;101117.59;10336523;28;20318;-64
2023/07/26 19:48:58;;;;;;;;;;;;;;;15.73;82.14;101120.66;10335662;28;19925;-63
2023/07/26 19:54:00;;;;;;;;;;;;;;;15.62;82.90;101120.63;10336278;28;19926;-63
2023/07/26 19:59:02;;;;;;;;;;;;;;;15.52;84.46;101117.81;10335044;28;19932;-63
2023/07/26 20:04:05;;;;;;;;;;;;;;;15.39;85.35;101112.59;10335884;28;19961;-63
2023/07/26 20:09:07;;;;;;;;;;;;;;;15.52;83.33;101114.34;10335569;28;20475;-63
2023/07/26 20:14:09;;;;;;;;;;;;;;;15.40;83.31;101106.38;10335558;28;19932;-63
2023/07/26 20:19:11;;;;;;;;;;;;;;;15.58;81.77;101104.19;10335327;28;19926;-63
2023/07/26 20:24:14;;;;;;;;;;;;;;;15.53;83.73;101103.69;10335275;28;20021;-64
2023/07/26 20:29:16;;;;;;;;;;;;;;;15.42;84.29;101104.44;10334717;28;19926;-64
2023/07/26 20:34:19;;;;;;;;;;;;;;;15.42;85.68;101104.44;10334860;28;20276;-64
2023/07/26 20:39:21;;;;;;;;;;;;;;;15.40;87.72;101105.53;10334708;28;19926;-64
2023/07/26 20:44:23;;;;;;;;;;;;;;;15.39;86.01;101101.19;10334904;28;19932;-64
2023/07/26 20:49:25;;;;;;;;;;;;;;;15.33;88.49;101101.63;10334357;28;19926;-64
2023/07/26 20:54:28;;;;;;;;;;;;;;;15.36;88.24;101096.97;10334234;28;19932;-64
2023/07/26 20:59:30;;;;;;;;;;;;;;;15.37;91.05;101087.28;10333262;28;20444;-64
2023/07/26 21:04:33;;;;;;;;;;;;;;;15.26;91.75;101085.41;10332974;28;19936;-64
2023/07/26 21:09:35;;;;;;;;;;;;;;;15.23;90.29;101075.94;10333856;28;19926;-64
2023/07/26 21:14:37;;;;;;;;;;;;;;;15.09;89.81;101077.88;10333995;28;19930;-64
2023/07/26 21:19:40;;;;;;;;;;;;;;;15.13;86.36;101067.00;10316521;28;19926;-64
2023/07/26 21:24:42;;;;;;;;;;;;;;;15.09;86.46;101054.16;10349419;28;19933;-64
2023/07/26 21:29:44;;;;;;;;;;;;;;;15.16;85.22;101058.03;10333422;28;19981;-64
2023/07/26 21:34:46;;;;;;;;;;;;;;;14.99;84.95;101046.06;10333400;28;20374;-64
2023/07/26 21:39:49;;;;;;;;;;;;;;;14.93;86.29;101049.13;10333544;28;19926;-64
2023/07/26 21:44:51;;;;;;;;;;;;;;;14.97;86.95;101029.50;10333254;28;20375;-64
2023/07/26 21:49:53;;;;;;;;;;;;;;;14.89;85.58;101026.59;10333259;28;19926;-64
2023/07/26 21:54:55;;;;;;;;;;;;;;;14.72;89.04;101027.78;10333171;28;19933;-64
2023/07/26 21:59:58;;;;;;;;;;;;;;;14.61;87.65;101020.66;10333266;28;19929;-64
2023/07/26 22:05:00;;;;;;;;;;;;;;;14.34;92.96;101018.97;10331890;28;19932;-64
2023/07/26 22:10:03;;;;;;;;;;;;;;;14.59;93.08;101010.22;10317470;28;19925;-64
2023/07/26 22:15:05;;;;;;;;;;;;;;;14.59;88.37;101001.47;10340037;28;20403;-64
2023/07/26 22:20:10;;;;;;;;;;;;;;;14.13;89.79;100994.97;10339928;28;19973;-64
2023/07/26 22:25:12;;;;;;;;;;;;;;;14.22;92.29;100985.59;10339700;28;19962;-64
2023/07/26 22:30:14;;;;;;;;;;;;;;;14.46;95.55;100990.94;10339138;28;19926;-63
2023/07/26 22:35:17;;;;;;;;;;;;;;;14.75;92.92;100991.50;10339311;28;20399;-64
2023/07/26 22:40:19;;;;;;;;;;;;;;;14.85;91.34;100989.91;10338047;28;20008;-64
2023/07/26 22:45:21;;;;;;;;;;;;;;;14.96;89.66;100973.31;10339112;28;19926;-64
2023/07/26 22:50:24;;;;;;;;;;;;;;;14.43;91.10;100970.91;10338852;28;19925;-64
2023/07/26 22:55:26;;;;;;;;;;;;;;;14.54;91.83;100959.63;10338559;28;19925;-64
2023/07/26 23:00:28;;;;;;;;;;;;;;;14.74;91.90;100954.72;10338389;28;19926;-64
2023/07/26 23:05:31;;;;;;;;;;;;;;;14.67;89.56;100944.63;10337053;28;20009;-64
2023/07/26 23:10:33;;;;;;;;;;;;;;;14.76;92.08;100940.50;10337813;28;19930;-64
2023/07/26 23:15:35;;;;;;;;;;;;;;;15.04;92.56;100934.03;10337759;28;20293;-64
2023/07/26 23:20:37;;;;;;;;;;;;;;;15.27;93.04;100933.28;10336737;28;19929;-63
2023/07/26 23:25:39;;;;;;;;;;;;;;;15.25;89.52;100925.47;10337176;28;19925;-64
2023/07/26 23:30:42;;;;;;;;;;;;;;;15.20;88.26;100910.00;10337022;28;19933;-64
2023/07/26 23:35:45;;;;;;;;;;;;;;;15.14;87.70;100909.63;10335919;28;19925;-64
2023/07/26 23:40:47;;;;;;;;;;;;;;;15.23;88.34;100904.50;10336826;28;19930;-64
2023/07/26 23:45:50;;;;;;;;;;;;;;;14.97;90.46;100898.53;10336644;28;19926;-64
2023/07/26 23:50:52;;;;;;;;;;;;;;;14.99;91.38;100893.13;10335270;28;19933;-64
2023/07/26 23:55:54;;;;;;;;;;;;;;;15.23;91.95;100890.44;10336182;28;19940;-64
